New Iberia, LA

12:14 AM CST on December 26, 2014 (GMT -0600)
Belair | Change Station
CLOSE
Current Station
Personal Weather Station
Location: New Iberia, LA
Elevation: 18 ft
Nearby Weather Stations

Elev 18 ft 29.99 °N, 91.77 °W | Updated 0 second ago

Mostly Cloudy
Mostly Cloudy
48.0 °F
Feels Like 48 °F
N
0.0
Wind Variable Wind from ESE
Gusts 1.0 mph

Today
High -- | Low -- °F
--% Chance of Precip.
Yesterday
High -- | Low -- °F
Precip. -- in
7:01 AM 5:14 PM
Waxing Crescent, 23% visible
Pressure 30.17 in
Visibility 10.0 miles
Clouds Clear
Windchill 48 °F
Dew Point 43 °F
Humidity 83%
Rainfall 0.00 in
Snow Depth Not available.
UV 0 out of 12
Pollen 4.00 out of 12
Air Quality Not available.
Flu Activity Not available.
METAR KARA 260553Z AUTO 12004KT 10SM CLR 08/06 A3017 RMK AO2 SLP217 T00830056 10094 20078 401560006 58002

More Conditions Fewer Conditions

Pressure 30.17 in
Visibility 10.0 miles
Clouds Clear
Windchill 48 °F
Dew Point 43 °F
Humidity 83%
Rainfall 0.00 in
Snow Depth Not available.
UV 0 out of 12
Pollen 4.00 out of 12
Air Quality Not available.
Flu Activity Not available.
METAR KARA 260553Z AUTO 12004KT 10SM CLR 08/06 A3017 RMK AO2 SLP217 T00830056 10094 20078 401560006 58002

More Conditions Fewer Conditions

10-Day Weather Forecast

Almanac

Astronomy

Dec. 26, 2014 Rise Set
Actual Time
Civil Twilight
Nautical Twilight
Astronomical Twilight
Moon
Length of Visible Light
Length of Day
Tomorrow will be .
, % of the Moon is Illuminated

Today's Extremes

State Highs State Lows

Community

WunderPhotos

Upload Photos

1,780,555 photos uploaded!

WunderBlogs® & News

Nearby

Air Quality

  Air Quality AQ Index Pollutant
Not available.

Snow Depth

Station Depth Elevation

Earthquake Activity

City Distance Mag. Time & Date
Minimum magnitude displayed is 2.5.

Coastal Water Temperatures

Place Temperature

Nearby Weather Stations